sensor_id;sensor_type;location;lat;lon;timestamp;P1;durP1;ratioP1;P2;durP2;ratioP2
70293;SDS011;72548;48.884;2.334;2023-11-22T20:57:17;5.57;;;1.40;;
70293;SDS011;74367;35.280;-77.632;2023-11-22T20:59:43;5.18;;;1.73;;
70293;SDS011;74367;35.280;-77.632;2023-11-22T21:02:09;5.78;;;1.95;;
70293;SDS011;74367;35.280;-77.632;2023-11-22T21:04:35;3.45;;;1.75;;
70293;SDS011;74367;35.280;-77.632;2023-11-22T21:07:01;4.80;;;1.43;;
70293;SDS011;74367;35.280;-77.632;2023-11-22T21:09:28;4.75;;;1.20;;
70293;SDS011;74367;35.280;-77.632;2023-11-22T21:11:54;3.45;;;1.63;;
70293;SDS011;74367;35.280;-77.632;2023-11-22T21:14:20;3.65;;;1.52;;
70293;SDS011;74367;35.280;-77.632;2023-11-22T21:16:47;4.55;;;1.88;;
70293;SDS011;74367;35.280;-77.632;2023-11-22T21:19:13;3.43;;;1.47;;
70293;SDS011;74367;35.280;-77.632;2023-11-22T21:21:39;5.18;;;1.60;;
70293;SDS011;74367;35.280;-77.632;2023-11-22T21:24:06;4.13;;;1.70;;
70293;SDS011;74367;35.280;-77.632;2023-11-22T21:26:32;3.60;;;1.85;;
70293;SDS011;74367;35.280;-77.632;2023-11-22T21:28:58;4.60;;;2.20;;
70293;SDS011;74367;35.280;-77.632;2023-11-22T21:31:24;4.60;;;2.30;;
70293;SDS011;74367;35.280;-77.632;2023-11-22T21:33:50;5.85;;;2.13;;
70293;SDS011;74367;35.280;-77.632;2023-11-22T21:36:16;4.55;;;2.15;;
70293;SDS011;74367;35.280;-77.632;2023-11-22T21:38:43;3.33;;;1.27;;
70293;SDS011;74367;35.280;-77.632;2023-11-22T21:41:09;5.32;;;1.67;;
70293;SDS011;74367;35.280;-77.632;2023-11-22T21:43:37;5.97;;;1.83;;
70293;SDS011;74367;35.280;-77.632;2023-11-22T21:46:05;4.28;;;1.80;;
70293;SDS011;74367;35.280;-77.632;2023-11-22T21:48:35;5.20;;;2.10;;
70293;SDS011;74367;35.280;-77.632;2023-11-22T21:51:01;4.40;;;1.40;;
70293;SDS011;74367;35.280;-77.632;2023-11-22T21:53:28;3.88;;;1.70;;
70293;SDS011;74367;35.280;-77.632;2023-11-22T21:55:54;4.60;;;2.00;;
70293;SDS011;74367;35.280;-77.632;2023-11-22T21:58:20;4.50;;;1.88;;
70293;SDS011;74367;35.280;-77.632;2023-11-22T22:00:47;6.43;;;1.80;;
70293;SDS011;74367;35.280;-77.632;2023-11-22T22:03:18;4.20;;;1.80;;
70293;SDS011;74367;35.280;-77.632;2023-11-22T22:05:44;3.90;;;2.03;;
70293;SDS011;74367;35.280;-77.632;2023-11-22T22:08:14;4.43;;;2.20;;
70293;SDS011;74367;35.280;-77.632;2023-11-22T22:10:41;4.30;;;2.17;;
70293;SDS011;74367;35.280;-77.632;2023-11-22T22:13:07;4.30;;;2.47;;
70293;SDS011;74367;35.280;-77.632;2023-11-22T22:15:34;5.47;;;2.20;;
70293;SDS011;74367;35.280;-77.632;2023-11-22T22:18:00;6.03;;;2.30;;
70293;SDS011;74367;35.280;-77.632;2023-11-22T22:20:27;5.45;;;2.50;;
70293;SDS011;74367;35.280;-77.632;2023-11-22T22:22:53;5.10;;;2.28;;
70293;SDS011;74367;35.280;-77.632;2023-11-22T22:25:18;6.20;;;2.53;;
70293;SDS011;74367;35.280;-77.632;2023-11-22T22:27:46;6.27;;;2.50;;
70293;SDS011;74367;35.280;-77.632;2023-11-22T22:30:12;5.32;;;2.60;;
70293;SDS011;74367;35.280;-77.632;2023-11-22T22:32:38;4.75;;;2.45;;
70293;SDS011;74367;35.280;-77.632;2023-11-22T22:35:05;9.32;;;1.95;;
70293;SDS011;74367;35.280;-77.632;2023-11-22T22:37:31;4.35;;;1.52;;
70293;SDS011;74367;35.280;-77.632;2023-11-22T22:39:57;4.70;;;2.00;;
70293;SDS011;74367;35.280;-77.632;2023-11-22T22:42:24;4.82;;;1.85;;
70293;SDS011;74367;35.280;-77.632;2023-11-22T22:44:50;5.82;;;2.75;;
70293;SDS011;74367;35.280;-77.632;2023-11-22T22:47:17;4.95;;;2.40;;
70293;SDS011;74367;35.280;-77.632;2023-11-22T22:49:43;4.93;;;2.25;;
70293;SDS011;74367;35.280;-77.632;2023-11-22T22:52:09;5.60;;;2.57;;
70293;SDS011;74367;35.280;-77.632;2023-11-22T22:54:35;5.60;;;2.88;;
70293;SDS011;74367;35.280;-77.632;2023-11-22T22:57:01;6.25;;;2.60;;
70293;SDS011;74367;35.280;-77.632;2023-11-22T22:59:27;6.93;;;3.13;;
70293;SDS011;74367;35.280;-77.632;2023-11-22T23:01:53;6.20;;;2.90;;
70293;SDS011;74367;35.280;-77.632;2023-11-22T23:04:22;5.10;;;2.03;;
70293;SDS011;74367;35.280;-77.632;2023-11-22T23:06:48;4.60;;;2.20;;
70293;SDS011;74367;35.280;-77.632;2023-11-22T23:09:16;5.05;;;2.63;;
70293;SDS011;74367;35.280;-77.632;2023-11-22T23:11:42;5.13;;;2.78;;
70293;SDS011;74367;35.280;-77.632;2023-11-22T23:14:08;5.63;;;2.67;;
70293;SDS011;74367;35.280;-77.632;2023-11-22T23:16:35;6.53;;;3.13;;
70293;SDS011;74367;35.280;-77.632;2023-11-22T23:19:01;5.63;;;2.47;;
70293;SDS011;74367;35.280;-77.632;2023-11-22T23:21:28;5.45;;;2.55;;
70293;SDS011;74367;35.280;-77.632;2023-11-22T23:23:54;5.37;;;2.83;;
70293;SDS011;74367;35.280;-77.632;2023-11-22T23:26:20;9.45;;;3.35;;
70293;SDS011;74367;35.280;-77.632;2023-11-22T23:28:51;5.80;;;2.97;;
70293;SDS011;74367;35.280;-77.632;2023-11-22T23:31:17;5.60;;;2.38;;
70293;SDS011;74367;35.280;-77.632;2023-11-22T23:33:44;5.88;;;3.25;;
70293;SDS011;74367;35.280;-77.632;2023-11-22T23:36:14;6.70;;;2.80;;
70293;SDS011;74367;35.280;-77.632;2023-11-22T23:38:40;7.50;;;3.30;;
70293;SDS011;74367;35.280;-77.632;2023-11-22T23:41:06;6.68;;;3.08;;
70293;SDS011;74367;35.280;-77.632;2023-11-22T23:43:32;8.73;;;3.40;;
70293;SDS011;74367;35.280;-77.632;2023-11-22T23:46:01;5.80;;;2.77;;
70293;SDS011;74367;35.280;-77.632;2023-11-22T23:48:29;8.15;;;3.38;;
70293;SDS011;74367;35.280;-77.632;2023-11-22T23:50:55;10.27;;;3.10;;
70293;SDS011;74367;35.280;-77.632;2023-11-22T23:53:21;6.18;;;3.60;;
70293;SDS011;74367;35.280;-77.632;2023-11-22T23:55:48;6.10;;;3.17;;
70293;SDS011;74367;35.280;-77.632;2023-11-22T23:58:14;6.57;;;3.53;;
